sensor_id;sensor_type;location;lat;lon;timestamp;pressure;altitude;pressure_sealevel;temperature;humidity
17362;BME280;8798;51.938;4.348;2023-01-25T00:00:51;103786.34;;;3.81;80.47
17362;BME280;8798;51.938;4.348;2023-01-25T00:03:19;103780.13;;;3.80;80.50
17362;BME280;8798;51.938;4.348;2023-01-25T00:05:47;103784.59;;;3.80;80.88
17362;BME280;8798;51.938;4.348;2023-01-25T00:08:14;103798.75;;;3.80;80.46
17362;BME280;8798;51.938;4.348;2023-01-25T00:10:42;103796.97;;;3.81;80.60
17362;BME280;8798;51.938;4.348;2023-01-25T00:13:10;103798.69;;;3.83;80.73
17362;BME280;8798;51.938;4.348;2023-01-25T00:15:38;103799.59;;;3.82;80.80
17362;BME280;8798;51.938;4.348;2023-01-25T00:18:07;103796.97;;;3.81;80.59
17362;BME280;8798;51.938;4.348;2023-01-25T00:20:35;103798.75;;;3.80;80.78
17362;BME280;8798;51.938;4.348;2023-01-25T00:23:03;103795.19;;;3.81;81.18
17362;BME280;8798;51.938;4.348;2023-01-25T00:25:30;103793.44;;;3.80;80.75
17362;BME280;8798;51.938;4.348;2023-01-25T00:27:58;103790.81;;;3.79;80.60
17362;BME280;8798;51.938;4.348;2023-01-25T00:30:26;103781.06;;;3.78;80.60
17362;BME280;8798;51.938;4.348;2023-01-25T00:33:01;103780.22;;;3.76;80.78
17362;BME280;8798;51.938;4.348;2023-01-25T00:35:31;103773.19;;;3.75;80.38
17362;BME280;8798;51.938;4.348;2023-01-25T00:38:01;103777.63;;;3.74;80.87
17362;BME280;8798;51.938;4.348;2023-01-25T00:40:29;103753.81;;;3.68;80.40
17362;BME280;8798;51.938;4.348;2023-01-25T00:42:57;103707.97;;;3.58;80.37
17362;BME280;8798;51.938;4.348;2023-01-25T00:45:26;103708.91;;;3.57;80.22
17362;BME280;8798;51.938;4.348;2023-01-25T00:47:54;103713.34;;;3.57;79.98
17362;BME280;8798;51.938;4.348;2023-01-25T00:50:22;103713.28;;;3.58;80.34
17362;BME280;8798;51.938;4.348;2023-01-25T00:52:51;103718.59;;;3.58;80.30
17362;BME280;8798;51.938;4.348;2023-01-25T00:55:19;103735.38;;;3.62;80.26
17362;BME280;8798;51.938;4.348;2023-01-25T00:57:47;103731.84;;;3.61;80.68
17362;BME280;8798;51.938;4.348;2023-01-25T01:00:15;103724.81;;;3.59;79.71
17362;BME280;8798;51.938;4.348;2023-01-25T01:02:43;103716.91;;;3.56;80.24
17362;BME280;8798;51.938;4.348;2023-01-25T01:05:11;103704.56;;;3.53;79.88
17362;BME280;8798;51.938;4.348;2023-01-25T01:07:39;103706.31;;;3.54;80.13
17362;BME280;8798;51.938;4.348;2023-01-25T01:10:09;103717.84;;;3.53;80.46
17362;BME280;8798;51.938;4.348;2023-01-25T01:12:37;103712.53;;;3.53;80.51
17362;BME280;8798;51.938;4.348;2023-01-25T01:15:06;103716.09;;;3.54;80.00
17362;BME280;8798;51.938;4.348;2023-01-25T01:17:34;103712.50;;;3.55;79.98
17362;BME280;8798;51.938;4.348;2023-01-25T01:20:02;103725.78;;;3.56;80.17
17362;BME280;8798;51.938;4.348;2023-01-25T01:22:30;103728.44;;;3.56;80.63
17362;BME280;8798;51.938;4.348;2023-01-25T01:24:58;103729.31;;;3.55;80.58
17362;BME280;8798;51.938;4.348;2023-01-25T01:27:27;103729.31;;;3.55;80.37
17362;BME280;8798;51.938;4.348;2023-01-25T01:29:55;103726.66;;;3.55;80.53
17362;BME280;8798;51.938;4.348;2023-01-25T01:32:23;103723.13;;;3.55;80.39
17362;BME280;8798;51.938;4.348;2023-01-25T01:34:51;103730.22;;;3.54;80.05
17362;BME280;8798;51.938;4.348;2023-01-25T01:37:19;103729.38;;;3.54;80.50
17362;BME280;8798;51.938;4.348;2023-01-25T01:39:46;103717.91;;;3.52;80.47
17362;BME280;8798;51.938;4.348;2023-01-25T01:42:14;103700.28;;;3.46;80.32
17362;BME280;8798;51.938;4.348;2023-01-25T01:44:46;103677.41;;;3.40;80.32
17362;BME280;8798;51.938;4.348;2023-01-25T01:47:18;103657.16;;;3.35;80.64
17362;BME280;8798;51.938;4.348;2023-01-25T01:49:50;103638.69;;;3.29;79.86
17362;BME280;8798;51.938;4.348;2023-01-25T01:52:23;103637.81;;;3.28;80.18
17362;BME280;8798;51.938;4.348;2023-01-25T01:54:56;103621.09;;;3.25;80.05
17362;BME280;8798;51.938;4.348;2023-01-25T01:57:31;103603.44;;;3.22;80.60
17362;BME280;8798;51.938;4.348;2023-01-25T02:00:04;103582.34;;;3.16;79.92
17362;BME280;8798;51.938;4.348;2023-01-25T02:02:34;103568.28;;;3.11;80.09
17362;BME280;8798;51.938;4.348;2023-01-25T02:05:04;103585.03;;;3.14;80.16
17362;BME280;8798;51.938;4.348;2023-01-25T02:07:36;103609.75;;;3.16;79.32
17362;BME280;8798;51.938;4.348;2023-01-25T02:10:06;103615.03;;;3.19;80.13
17362;BME280;8798;51.938;4.348;2023-01-25T02:12:34;103628.22;;;3.22;80.14
17362;BME280;8798;51.938;4.348;2023-01-25T02:15:06;103638.81;;;3.24;80.22
17362;BME280;8798;51.938;4.348;2023-01-25T02:17:36;103632.66;;;3.22;79.91
17362;BME280;8798;51.938;4.348;2023-01-25T02:20:09;103618.63;;;3.17;80.04
17362;BME280;8798;51.938;4.348;2023-01-25T02:22:46;103601.88;;;3.13;80.08
17362;BME280;8798;51.938;4.348;2023-01-25T02:25:19;103612.47;;;3.15;79.84
17362;BME280;8798;51.938;4.348;2023-01-25T02:27:50;103618.63;;;3.17;80.15
17362;BME280;8798;51.938;4.348;2023-01-25T02:30:20;103624.75;;;3.19;79.63
17362;BME280;8798;51.938;4.348;2023-01-25T02:32:47;103635.38;;;3.19;80.21
17362;BME280;8798;51.938;4.348;2023-01-25T02:35:20;103635.44;;;3.16;80.32
17362;BME280;8798;51.938;4.348;2023-01-25T02:37:48;103630.97;;;3.18;79.68
17362;BME280;8798;51.938;4.348;2023-01-25T02:40:18;103648.63;;;3.20;79.53
17362;BME280;8798;51.938;4.348;2023-01-25T02:42:46;103640.69;;;3.19;79.62
17362;BME280;8798;51.938;4.348;2023-01-25T02:45:15;103628.31;;;3.18;79.52
17362;BME280;8798;51.938;4.348;2023-01-25T02:47:45;103623.09;;;3.13;79.68
17362;BME280;8798;51.938;4.348;2023-01-25T02:50:14;103612.59;;;3.09;79.95
17362;BME280;8798;51.938;4.348;2023-01-25T02:52:42;103595.84;;;3.07;80.28
17362;BME280;8798;51.938;4.348;2023-01-25T02:55:10;103598.50;;;3.07;79.81
17362;BME280;8798;51.938;4.348;2023-01-25T02:57:39;103608.19;;;3.08;79.65
17362;BME280;8798;51.938;4.348;2023-01-25T03:00:08;103611.72;;;3.08;79.31
17362;BME280;8798;51.938;4.348;2023-01-25T03:02:36;103595.88;;;3.04;79.52
17362;BME280;8798;51.938;4.348;2023-01-25T03:05:04;103593.28;;;3.02;79.55
17362;BME280;8798;51.938;4.348;2023-01-25T03:07:33;103606.50;;;3.05;79.89
17362;BME280;8798;51.938;4.348;2023-01-25T03:10:00;103629.41;;;3.09;79.92
17362;BME280;8798;51.938;4.348;2023-01-25T03:12:28;103636.44;;;3.12;79.62
17362;BME280;8798;51.938;4.348;2023-01-25T03:14:57;103644.41;;;3.12;80.00
17362;BME280;8798;51.938;4.348;2023-01-25T03:17:25;103646.13;;;3.14;79.29
17362;BME280;8798;51.938;4.348;2023-01-25T03:19:53;103655.81;;;3.15;80.04
17362;BME280;8798;51.938;4.348;2023-01-25T03:22:21;103647.00;;;3.13;79.94
17362;BME280;8798;51.938;4.348;2023-01-25T03:24:48;103640.91;;;3.10;80.01
17362;BME280;8798;51.938;4.348;2023-01-25T03:27:16;103635.59;;;3.10;79.65
17362;BME280;8798;51.938;4.348;2023-01-25T03:29:44;103649.72;;;3.12;80.13
17362;BME280;8798;51.938;4.348;2023-01-25T03:32:13;103661.13;;;3.15;79.69
17362;BME280;8798;51.938;4.348;2023-01-25T03:34:41;103648.78;;;3.13;80.14
17362;BME280;8798;51.938;4.348;2023-01-25T03:37:09;103652.38;;;3.12;79.94
17362;BME280;8798;51.938;4.348;2023-01-25T03:39:37;103642.69;;;3.09;80.46
17362;BME280;8798;51.938;4.348;2023-01-25T03:42:05;103607.44;;;3.03;80.16
17362;BME280;8798;51.938;4.348;2023-01-25T03:44:33;103587.22;;;2.95;79.88
17362;BME280;8798;51.938;4.348;2023-01-25T03:47:01;103593.47;;;2.94;79.88
17362;BME280;8798;51.938;4.348;2023-01-25T03:49:30;103581.06;;;2.93;79.70
17362;BME280;8798;51.938;4.348;2023-01-25T03:51:58;103563.50;;;2.88;80.21
17362;BME280;8798;51.938;4.348;2023-01-25T03:54:26;103536.22;;;2.81;79.87
17362;BME280;8798;51.938;4.348;2023-01-25T03:56:54;103530.06;;;2.79;80.29
17362;BME280;8798;51.938;4.348;2023-01-25T03:59:21;103540.69;;;2.79;79.39
17362;BME280;8798;51.938;4.348;2023-01-25T04:01:49;103507.22;;;2.73;79.76
17362;BME280;8798;51.938;4.348;2023-01-25T04:04:17;103512.53;;;2.73;79.01
17362;BME280;8798;51.938;4.348;2023-01-25T04:06:47;103504.63;;;2.70;79.40
17362;BME280;8798;51.938;4.348;2023-01-25T04:09:14;103506.41;;;2.70;79.58
17362;BME280;8798;51.938;4.348;2023-01-25T04:11:42;103510.81;;;2.71;79.76
17362;BME280;8798;51.938;4.348;2023-01-25T04:14:10;103524.91;;;2.73;79.81
17362;BME280;8798;51.938;4.348;2023-01-25T04:16:38;103508.19;;;2.69;80.25
17362;BME280;8798;51.938;4.348;2023-01-25T04:19:06;103505.56;;;2.68;79.61
17362;BME280;8798;51.938;4.348;2023-01-25T04:21:34;103532.00;;;2.72;79.74
17362;BME280;8798;51.938;4.348;2023-01-25T04:24:04;103554.88;;;2.78;79.80
17362;BME280;8798;51.938;4.348;2023-01-25T04:26:32;103573.34;;;2.83;79.17
17362;BME280;8798;51.938;4.348;2023-01-25T04:29:00;103581.28;;;2.84;79.35
17362;BME280;8798;51.938;4.348;2023-01-25T04:31:27;103600.63;;;2.89;79.27
17362;BME280;8798;51.938;4.348;2023-01-25T04:33:55;103630.63;;;2.94;79.85
17362;BME280;8798;51.938;4.348;2023-01-25T04:36:23;103644.66;;;2.99;80.12
17362;BME280;8798;51.938;4.348;2023-01-25T04:38:51;103649.94;;;3.01;79.47
17362;BME280;8798;51.938;4.348;2023-01-25T04:41:20;103670.22;;;3.04;80.01
17362;BME280;8798;51.938;4.348;2023-01-25T04:43:52;103677.25;;;3.06;79.67
17362;BME280;8798;51.938;4.348;2023-01-25T04:46:20;103677.25;;;3.06;79.41
17362;BME280;8798;51.938;4.348;2023-01-25T04:48:47;103683.41;;;3.08;79.70
17362;BME280;8798;51.938;4.348;2023-01-25T04:51:15;103675.50;;;3.05;79.65
17362;BME280;8798;51.938;4.348;2023-01-25T04:53:43;103654.34;;;3.02;79.47
17362;BME280;8798;51.938;4.348;2023-01-25T04:56:11;103664.97;;;3.02;79.86
17362;BME280;8798;51.938;4.348;2023-01-25T04:58:40;103659.69;;;3.00;79.49
17362;BME280;8798;51.938;4.348;2023-01-25T05:01:08;103668.50;;;3.03;79.45
17362;BME280;8798;51.938;4.348;2023-01-25T05:03:36;103682.56;;;3.06;79.58
17362;BME280;8798;51.938;4.348;2023-01-25T05:06:04;103678.16;;;3.07;79.51
17362;BME280;8798;51.938;4.348;2023-01-25T05:08:32;103685.19;;;3.08;80.15
17362;BME280;8798;51.938;4.348;2023-01-25T05:10:59;103705.50;;;3.10;79.52
17362;BME280;8798;51.938;4.348;2023-01-25T05:13:27;103714.25;;;3.14;79.93
17362;BME280;8798;51.938;4.348;2023-01-25T05:15:56;103712.50;;;3.14;79.71
17362;BME280;8798;51.938;4.348;2023-01-25T05:18:24;103729.25;;;3.16;80.08
17362;BME280;8798;51.938;4.348;2023-01-25T05:21:04;103730.09;;;3.20;80.02
17362;BME280;8798;51.938;4.348;2023-01-25T05:23:52;103743.38;;;3.20;79.18
17362;BME280;8798;51.938;4.348;2023-01-25T05:26:20;103747.75;;;3.21;79.98
17362;BME280;8798;51.938;4.348;2023-01-25T05:29:05;103745.94;;;3.23;79.78
17362;BME280;8798;51.938;4.348;2023-01-25T05:31:34;103752.09;;;3.25;79.45
17362;BME280;8798;51.938;4.348;2023-01-25T05:34:02;103760.94;;;3.26;79.90
17362;BME280;8798;51.938;4.348;2023-01-25T05:36:30;103743.28;;;3.23;79.34
17362;BME280;8798;51.938;4.348;2023-01-25T05:38:58;103750.38;;;3.24;79.75
17362;BME280;8798;51.938;4.348;2023-01-25T05:41:26;103759.16;;;3.26;79.38
17362;BME280;8798;51.938;4.348;2023-01-25T05:43:53;103767.97;;;3.28;79.94
17362;BME280;8798;51.938;4.348;2023-01-25T05:46:21;103773.25;;;3.30;79.94
17362;BME280;8798;51.938;4.348;2023-01-25T05:48:50;103774.13;;;3.30;79.67
17362;BME280;8798;51.938;4.348;2023-01-25T05:51:18;103758.22;;;3.29;79.76
17362;BME280;8798;51.938;4.348;2023-01-25T05:53:46;103755.63;;;3.27;79.39
17362;BME280;8798;51.938;4.348;2023-01-25T05:56:14;103749.44;;;3.25;80.08
17362;BME280;8798;51.938;4.348;2023-01-25T05:58:42;103744.16;;;3.23;79.43
17362;BME280;8798;51.938;4.348;2023-01-25T06:01:10;103737.97;;;3.23;79.95
17362;BME280;8798;51.938;4.348;2023-01-25T06:03:38;103735.31;;;3.23;79.58
17362;BME280;8798;51.938;4.348;2023-01-25T06:06:07;103730.88;;;3.23;79.45
17362;BME280;8798;51.938;4.348;2023-01-25T06:08:35;103727.41;;;3.21;79.25
17362;BME280;8798;51.938;4.348;2023-01-25T06:11:06;103738.91;;;3.22;79.40
17362;BME280;8798;51.938;4.348;2023-01-25T06:13:34;103723.84;;;3.22;79.26
17362;BME280;8798;51.938;4.348;2023-01-25T06:16:02;103739.78;;;3.22;79.40
17362;BME280;8798;51.938;4.348;2023-01-25T06:18:31;103734.47;;;3.22;79.80
17362;BME280;8798;51.938;4.348;2023-01-25T06:21:00;103726.50;;;3.21;80.07
17362;BME280;8798;51.938;4.348;2023-01-25T06:23:30;103727.41;;;3.21;79.06
17362;BME280;8798;51.938;4.348;2023-01-25T06:25:58;103741.56;;;3.22;79.35
17362;BME280;8798;51.938;4.348;2023-01-25T06:28:28;103744.16;;;3.23;79.18
17362;BME280;8798;51.938;4.348;2023-01-25T06:31:03;103738.84;;;3.23;79.85
17362;BME280;8798;51.938;4.348;2023-01-25T06:33:31;103734.47;;;3.22;79.66
17362;BME280;8798;51.938;4.348;2023-01-25T06:36:00;103717.69;;;3.19;79.29
17362;BME280;8798;51.938;4.348;2023-01-25T06:38:28;103711.56;;;3.17;79.45
17362;BME280;8798;51.938;4.348;2023-01-25T06:40:59;103718.59;;;3.19;79.35
17362;BME280;8798;51.938;4.348;2023-01-25T06:43:28;103723.84;;;3.21;79.17
17362;BME280;8798;51.938;4.348;2023-01-25T06:45:57;103730.94;;;3.22;79.41
17362;BME280;8798;51.938;4.348;2023-01-25T06:48:25;103727.34;;;3.23;79.91
17362;BME280;8798;51.938;4.348;2023-01-25T06:50:54;103739.75;;;3.24;79.48
17362;BME280;8798;51.938;4.348;2023-01-25T06:53:24;103738.84;;;3.23;79.67
17362;BME280;8798;51.938;4.348;2023-01-25T06:55:59;103711.50;;;3.20;79.41
17362;BME280;8798;51.938;4.348;2023-01-25T06:58:29;103705.41;;;3.15;79.98
17362;BME280;8798;51.938;4.348;2023-01-25T07:01:02;103693.00;;;3.14;79.42
17362;BME280;8798;51.938;4.348;2023-01-25T07:03:31;103690.38;;;3.14;79.72
17362;BME280;8798;51.938;4.348;2023-01-25T07:05:59;103692.13;;;3.15;79.75
17362;BME280;8798;51.938;4.348;2023-01-25T07:08:27;103702.69;;;3.16;79.23
17362;BME280;8798;51.938;4.348;2023-01-25T07:10:56;103694.78;;;3.15;79.39
17362;BME280;8798;51.938;4.348;2023-01-25T07:13:26;103705.34;;;3.16;79.30
17362;BME280;8798;51.938;4.348;2023-01-25T07:15:56;103703.63;;;3.15;79.53
17362;BME280;8798;51.938;4.348;2023-01-25T07:18:25;103693.00;;;3.14;79.76
17362;BME280;8798;51.938;4.348;2023-01-25T07:20:53;103683.31;;;3.13;79.22
17362;BME280;8798;51.938;4.348;2023-01-25T07:23:21;103687.72;;;3.14;79.69
17362;BME280;8798;51.938;4.348;2023-01-25T07:25:49;103690.38;;;3.14;79.16
17362;BME280;8798;51.938;4.348;2023-01-25T07:28:17;103689.50;;;3.13;79.00
17362;BME280;8798;51.938;4.348;2023-01-25T07:30:46;103693.00;;;3.15;79.08
17362;BME280;8798;51.938;4.348;2023-01-25T07:33:14;103701.81;;;3.17;79.66
17362;BME280;8798;51.938;4.348;2023-01-25T07:35:42;103692.97;;;3.17;79.53
17362;BME280;8798;51.938;4.348;2023-01-25T07:38:10;103706.25;;;3.17;79.67
17362;BME280;8798;51.938;4.348;2023-01-25T07:40:40;103704.47;;;3.17;79.69
17362;BME280;8798;51.938;4.348;2023-01-25T07:43:08;103708.00;;;3.18;79.23
17362;BME280;8798;51.938;4.348;2023-01-25T07:45:36;103708.00;;;3.18;79.73
17362;BME280;8798;51.938;4.348;2023-01-25T07:48:08;103702.69;;;3.18;79.20
17362;BME280;8798;51.938;4.348;2023-01-25T07:50:37;103688.59;;;3.14;78.93
17362;BME280;8798;51.938;4.348;2023-01-25T07:53:05;103657.81;;;3.06;79.50
17362;BME280;8798;51.938;4.348;2023-01-25T07:55:33;103630.47;;;3.00;79.30
17362;BME280;8798;51.938;4.348;2023-01-25T07:58:01;103614.63;;;2.97;79.04
17362;BME280;8798;51.938;4.348;2023-01-25T08:00:29;103612.00;;;2.96;79.34
17362;BME280;8798;51.938;4.348;2023-01-25T08:02:56;103610.25;;;2.95;78.82
17362;BME280;8798;51.938;4.348;2023-01-25T08:05:26;103603.19;;;2.94;79.20
17362;BME280;8798;51.938;4.348;2023-01-25T08:07:54;103601.53;;;2.90;79.60
17362;BME280;8798;51.938;4.348;2023-01-25T08:10:21;103587.41;;;2.88;79.76
17362;BME280;8798;51.938;4.348;2023-01-25T08:12:49;103592.72;;;2.88;79.11
17362;BME280;8798;51.938;4.348;2023-01-25T08:15:17;103578.63;;;2.84;79.31
17362;BME280;8798;51.938;4.348;2023-01-25T08:17:45;103567.13;;;2.84;78.75
17362;BME280;8798;51.938;4.348;2023-01-25T08:20:13;103573.31;;;2.84;78.69
17362;BME280;8798;51.938;4.348;2023-01-25T08:22:42;103584.78;;;2.86;79.48
17362;BME280;8798;51.938;4.348;2023-01-25T08:25:10;103597.09;;;2.89;79.41
17362;BME280;8798;51.938;4.348;2023-01-25T08:27:37;103599.72;;;2.90;79.21
17362;BME280;8798;51.938;4.348;2023-01-25T08:30:07;103603.25;;;2.91;78.82
17362;BME280;8798;51.938;4.348;2023-01-25T08:32:35;103609.44;;;2.91;79.28
17362;BME280;8798;51.938;4.348;2023-01-25T08:35:04;103594.44;;;2.89;79.53
17362;BME280;8798;51.938;4.348;2023-01-25T08:37:33;103594.44;;;2.89;79.53
17362;BME280;8798;51.938;4.348;2023-01-25T08:40:03;103595.38;;;2.88;78.87
17362;BME280;8798;51.938;4.348;2023-01-25T08:42:31;103598.03;;;2.88;79.47
17362;BME280;8798;51.938;4.348;2023-01-25T08:44:58;103584.84;;;2.83;79.40
17362;BME280;8798;51.938;4.348;2023-01-25T08:47:28;103544.34;;;2.75;78.52
17362;BME280;8798;51.938;4.348;2023-01-25T08:49:56;103516.19;;;2.68;78.92
17362;BME280;8798;51.938;4.348;2023-01-25T08:52:24;103501.22;;;2.64;79.26
17362;BME280;8798;51.938;4.348;2023-01-25T08:54:51;103491.53;;;2.63;79.88
17362;BME280;8798;51.938;4.348;2023-01-25T08:57:20;103510.03;;;2.66;79.55
17362;BME280;8798;51.938;4.348;2023-01-25T08:59:48;103513.56;;;2.66;79.47
17362;BME280;8798;51.938;4.348;2023-01-25T09:02:16;103505.66;;;2.65;78.96
17362;BME280;8798;51.938;4.348;2023-01-25T09:04:44;103500.38;;;2.63;79.52
17362;BME280;8798;51.938;4.348;2023-01-25T09:07:12;103506.53;;;2.64;79.30
17362;BME280;8798;51.938;4.348;2023-01-25T09:09:40;103510.03;;;2.66;79.60
17362;BME280;8798;51.938;4.348;2023-01-25T09:12:08;103524.16;;;2.66;79.02
17362;BME280;8798;51.938;4.348;2023-01-25T09:14:37;103540.91;;;2.70;79.28
17362;BME280;8798;51.938;4.348;2023-01-25T09:17:06;103560.28;;;2.73;78.78
17362;BME280;8798;51.938;4.348;2023-01-25T09:19:33;103585.78;;;2.80;78.68
17362;BME280;8798;51.938;4.348;2023-01-25T09:22:01;103583.09;;;2.82;78.92
17362;BME280;8798;51.938;4.348;2023-01-25T09:24:30;103599.84;;;2.84;78.80
17362;BME280;8798;51.938;4.348;2023-01-25T09:27:02;103620.13;;;2.88;79.67
17362;BME280;8798;51.938;4.348;2023-01-25T09:29:30;103615.69;;;2.89;79.89
17362;BME280;8798;51.938;4.348;2023-01-25T09:31:59;103617.44;;;2.90;79.55
17362;BME280;8798;51.938;4.348;2023-01-25T09:34:27;103621.84;;;2.89;79.49
17362;BME280;8798;51.938;4.348;2023-01-25T09:36:55;103631.50;;;2.93;79.32
17362;BME280;8798;51.938;4.348;2023-01-25T09:39:23;103639.47;;;2.95;79.62
17362;BME280;8798;51.938;4.348;2023-01-25T09:45:07;103639.47;;;2.93;79.42
17362;BME280;8798;51.938;4.348;2023-01-25T09:47:44;103657.97;;;2.98;79.11
17362;BME280;8798;51.938;4.348;2023-01-25T09:50:31;103678.19;;;3.04;79.07
17362;BME280;8798;51.938;4.348;2023-01-25T09:53:18;103683.47;;;3.05;79.30
17362;BME280;8798;51.938;4.348;2023-01-25T09:55:50;103672.88;;;3.04;79.04
17362;BME280;8798;51.938;4.348;2023-01-25T09:58:23;103663.19;;;3.03;78.87
17362;BME280;8798;51.938;4.348;2023-01-25T10:01:07;103669.34;;;3.03;79.69
17362;BME280;8798;51.938;4.348;2023-01-25T10:03:47;103679.97;;;3.05;79.07
17362;BME280;8798;51.938;4.348;2023-01-25T10:06:19;103694.91;;;3.09;79.36
17362;BME280;8798;51.938;4.348;2023-01-25T10:08:54;103694.88;;;3.10;78.89
17362;BME280;8798;51.938;4.348;2023-01-25T10:11:26;103704.56;;;3.13;79.40
17362;BME280;8798;51.938;4.348;2023-01-25T10:13:55;103694.88;;;3.10;78.74
17362;BME280;8798;51.938;4.348;2023-01-25T10:16:25;103704.56;;;3.13;79.60
17362;BME280;8798;51.938;4.348;2023-01-25T10:19:09;103701.88;;;3.14;79.32
17362;BME280;8798;51.938;4.348;2023-01-25T10:21:41;103714.22;;;3.17;78.96
17362;BME280;8798;51.938;4.348;2023-01-25T10:24:33;103713.31;;;3.16;79.41
17362;BME280;8798;51.938;4.348;2023-01-25T10:27:18;103711.56;;;3.17;78.90
17362;BME280;8798;51.938;4.348;2023-01-25T10:29:49;103707.13;;;3.17;78.69
17362;BME280;8798;51.938;4.348;2023-01-25T10:32:23;103709.78;;;3.17;79.21
17362;BME280;8798;51.938;4.348;2023-01-25T10:34:55;103709.78;;;3.17;78.79
17362;BME280;8798;51.938;4.348;2023-01-25T10:37:26;103717.69;;;3.19;79.44
17362;BME280;8798;51.938;4.348;2023-01-25T10:39:59;103732.66;;;3.23;78.79
17362;BME280;8798;51.938;4.348;2023-01-25T10:42:32;103729.06;;;3.26;79.06
17362;BME280;8798;51.938;4.348;2023-01-25T10:45:10;103725.56;;;3.23;79.33
17362;BME280;8798;51.938;4.348;2023-01-25T10:47:40;103711.50;;;3.20;79.05
17362;BME280;8798;51.938;4.348;2023-01-25T10:50:44;103719.38;;;3.23;79.42
17362;BME280;8798;51.938;4.348;2023-01-25T10:53:31;103722.88;;;3.27;79.43
17362;BME280;8798;51.938;4.348;2023-01-25T10:56:16;103750.16;;;3.33;78.85
17362;BME280;8798;51.938;4.348;2023-01-25T10:58:47;103760.75;;;3.36;78.78
17362;BME280;8798;51.938;4.348;2023-01-25T11:01:27;103757.16;;;3.37;79.50
17362;BME280;8798;51.938;4.348;2023-01-25T11:03:55;103765.97;;;3.39;78.96
17362;BME280;8798;51.938;4.348;2023-01-25T11:06:35;103780.94;;;3.43;79.46
17362;BME280;8798;51.938;4.348;2023-01-25T11:09:29;103788.88;;;3.47;79.10
17362;BME280;8798;51.938;4.348;2023-01-25T11:11:59;103783.53;;;3.47;79.31
17362;BME280;8798;51.938;4.348;2023-01-25T11:14:28;103786.16;;;3.48;78.93
17362;BME280;8798;51.938;4.348;2023-01-25T11:16:58;103793.19;;;3.51;79.40
17362;BME280;8798;51.938;4.348;2023-01-25T11:19:31;103802.88;;;3.53;78.81
17362;BME280;8798;51.938;4.348;2023-01-25T11:22:03;103804.63;;;3.54;79.21
17362;BME280;8798;51.938;4.348;2023-01-25T11:24:33;103801.13;;;3.54;78.81
17362;BME280;8798;51.938;4.348;2023-01-25T11:27:16;103804.56;;;3.57;78.46
17362;BME280;8798;51.938;4.348;2023-01-25T11:29:44;103795.75;;;3.55;79.41
17362;BME280;8798;51.938;4.348;2023-01-25T11:32:17;103786.91;;;3.55;79.14
17362;BME280;8798;51.938;4.348;2023-01-25T11:34:48;103791.28;;;3.57;78.98
17362;BME280;8798;51.938;4.348;2023-01-25T11:37:42;103799.16;;;3.62;78.93
17362;BME280;8798;51.938;4.348;2023-01-25T11:40:17;103788.56;;;3.60;79.42
17362;BME280;8798;51.938;4.348;2023-01-25T11:42:58;103791.22;;;3.60;79.27
17362;BME280;8798;51.938;4.348;2023-01-25T11:46:03;103778.88;;;3.58;78.76
17362;BME280;8798;51.938;4.348;2023-01-25T11:48:54;103757.69;;;3.55;79.26
17362;BME280;8798;51.938;4.348;2023-01-25T11:51:28;103751.50;;;3.54;78.92
17362;BME280;8798;51.938;4.348;2023-01-25T11:54:15;103730.31;;;3.51;78.64
17362;BME280;8798;51.938;4.348;2023-01-25T11:56:54;103696.81;;;3.44;79.35
17362;BME280;8798;51.938;4.348;2023-01-25T11:59:37;103699.41;;;3.45;79.24
17362;BME280;8798;51.938;4.348;2023-01-25T12:02:23;103692.38;;;3.44;78.95
17362;BME280;8798;51.938;4.348;2023-01-25T12:05:14;103678.25;;;3.42;78.50
17362;BME280;8798;51.938;4.348;2023-01-25T12:07:51;103680.88;;;3.44;79.02
17362;BME280;8798;51.938;4.348;2023-01-25T12:10:34;103686.09;;;3.47;78.71
17362;BME280;8798;51.938;4.348;2023-01-25T12:13:13;103691.34;;;3.50;79.17
17362;BME280;8798;51.938;4.348;2023-01-25T12:16:02;103708.09;;;3.54;79.13
17362;BME280;8798;51.938;4.348;2023-01-25T12:18:54;103702.84;;;3.51;78.80
17362;BME280;8798;51.938;4.348;2023-01-25T12:21:40;103684.28;;;3.49;78.70
17362;BME280;8798;51.938;4.348;2023-01-25T12:24:22;103692.19;;;3.52;78.62
17362;BME280;8798;51.938;4.348;2023-01-25T12:26:59;103687.75;;;3.53;79.12
17362;BME280;8798;51.938;4.348;2023-01-25T12:29:35;103681.53;;;3.54;79.30
17362;BME280;8798;51.938;4.348;2023-01-25T12:32:08;103678.88;;;3.54;78.59
17362;BME280;8798;51.938;4.348;2023-01-25T12:34:40;103669.19;;;3.51;78.91
17362;BME280;8798;51.938;4.348;2023-01-25T12:37:14;103656.81;;;3.50;78.96
17362;BME280;8798;51.938;4.348;2023-01-25T12:39:45;103648.00;;;3.48;79.15
17362;BME280;8798;51.938;4.348;2023-01-25T12:42:19;103642.66;;;3.50;78.65
17362;BME280;8798;51.938;4.348;2023-01-25T12:44:52;103644.38;;;3.51;78.43
17362;BME280;8798;51.938;4.348;2023-01-25T12:47:24;103636.47;;;3.49;78.80
17362;BME280;8798;51.938;4.348;2023-01-25T12:49:59;103624.13;;;3.47;79.08
17362;BME280;8798;51.938;4.348;2023-01-25T12:52:32;103616.16;;;3.47;79.05
17362;BME280;8798;51.938;4.348;2023-01-25T12:55:03;103612.59;;;3.46;78.58
17362;BME280;8798;51.938;4.348;2023-01-25T12:57:36;103602.94;;;3.43;79.04
17362;BME280;8798;51.938;4.348;2023-01-25T13:00:12;103588.78;;;3.43;78.57
17362;BME280;8798;51.938;4.348;2023-01-25T13:03:03;103558.78;;;3.38;78.52
17362;BME280;8798;51.938;4.348;2023-01-25T13:05:38;103557.00;;;3.38;78.88
17362;BME280;8798;51.938;4.348;2023-01-25T13:08:18;103543.81;;;3.35;78.91
17362;BME280;8798;51.938;4.348;2023-01-25T13:11:06;103537.63;;;3.35;78.60
17362;BME280;8798;51.938;4.348;2023-01-25T13:13:37;103539.41;;;3.34;78.79
17362;BME280;8798;51.938;4.348;2023-01-25T13:16:34;103531.47;;;3.33;78.89
17362;BME280;8798;51.938;4.348;2023-01-25T13:19:03;103530.53;;;3.35;78.67
17362;BME280;8798;51.938;4.348;2023-01-25T13:21:39;103528.72;;;3.37;79.16
17362;BME280;8798;51.938;4.348;2023-01-25T13:24:19;103538.41;;;3.38;78.63
17362;BME280;8798;51.938;4.348;2023-01-25T13:26:57;103544.56;;;3.40;78.13
17362;BME280;8798;51.938;4.348;2023-01-25T13:29:57;103552.44;;;3.45;78.80
17362;BME280;8798;51.938;4.348;2023-01-25T13:33:00;103559.47;;;3.46;78.69
17362;BME280;8798;51.938;4.348;2023-01-25T13:35:37;103550.59;;;3.47;78.63